Linwood, Arkansas
Current Conditions -  °F | °C
As of 6:53 AM on Monday 22 Dec 2014 (Local Time) from KPBF Reporting Station
Haze Haze  
Wind Chill: 45°   Ceiling: 400
Heat Index: 49°   Visibility: 6mi
Dew Point: 48°   Wind: 10mph
Humidity: 97%   Direction: 160°SSE
Pressure: 29.79"   Gusts: NA
Location:  34.1538°N, 91.7975°W
Report Text: KPBF 221253Z AUTO 16009KT 6SM BR OVC004 09/09 A2979 RMK AO2 RAE01 SLP086 P0000 T00940089
Loading
Personal Weather Stations






























Interactive Weather Map New forecast layout! Learn more

10-Day Weather Forecast

Advertisements
Track Severe Weather on mobile